createdAt,value
2018-05-21T00:00:59.310Z,99.90
2018-05-21T00:03:26.868Z,99.90
2018-05-21T00:05:54.679Z,99.90
2018-05-21T00:08:22.406Z,99.90
2018-05-21T00:10:49.923Z,99.90
2018-05-21T00:13:18.356Z,99.90
2018-05-21T00:15:45.840Z,99.90
2018-05-21T00:18:13.323Z,99.90
2018-05-21T00:20:41.594Z,99.90
2018-05-21T00:23:09.096Z,99.90
2018-05-21T00:25:36.586Z,99.90
2018-05-21T00:28:04.095Z,99.90
2018-05-21T00:30:31.608Z,99.90
2018-05-21T00:32:59.087Z,99.90
2018-05-21T00:35:26.606Z,99.90
2018-05-21T00:37:54.089Z,99.90
2018-05-21T00:40:21.589Z,99.90
2018-05-21T00:42:49.062Z,99.90
2018-05-21T00:45:16.557Z,99.90
2018-05-21T00:47:44.093Z,99.90
2018-05-21T00:50:11.610Z,99.90
2018-05-21T00:52:39.361Z,99.90
2018-05-21T00:58:11.136Z,99.90
2018-05-21T01:00:38.626Z,99.90
2018-05-21T01:03:06.105Z,99.90
2018-05-21T01:05:33.593Z,99.90
2018-05-21T01:08:01.117Z,99.90
2018-05-21T01:10:28.619Z,99.90
2018-05-21T01:12:56.112Z,99.90
2018-05-21T01:15:24.365Z,99.90
2018-05-21T01:17:51.864Z,99.90
2018-05-21T01:20:20.109Z,99.90
2018-05-21T01:22:47.672Z,99.90
2018-05-21T01:25:15.086Z,99.90
2018-05-21T01:27:42.581Z,99.90
2018-05-21T01:30:10.140Z,99.90
2018-05-21T01:32:39.301Z,99.90
2018-05-21T01:35:06.801Z,99.90
2018-05-21T01:37:34.310Z,99.90
2018-05-21T01:40:02.114Z,99.90
2018-05-21T01:42:29.700Z,99.90
2018-05-21T01:44:57.940Z,99.90
2018-05-21T01:47:25.427Z,99.90
2018-05-21T01:49:52.922Z,99.90
2018-05-21T01:52:21.245Z,99.90
2018-05-21T01:54:48.869Z,99.90
2018-05-21T01:57:16.513Z,99.90
2018-05-21T01:59:44.025Z,99.90
2018-05-21T02:02:11.608Z,99.90
2018-05-21T02:04:39.112Z,99.90
2018-05-21T02:07:06.594Z,99.90
2018-05-21T02:09:34.082Z,99.90
2018-05-21T02:12:01.570Z,99.90
2018-05-21T02:14:29.097Z,99.90
2018-05-21T02:16:58.183Z,99.90
2018-05-21T02:19:26.460Z,99.90
2018-05-21T02:21:55.460Z,99.90
2018-05-21T02:24:22.953Z,99.90
2018-05-21T02:26:51.253Z,99.90
2018-05-21T02:29:18.733Z,99.90
2018-05-21T02:31:46.212Z,99.90
2018-05-21T02:34:13.700Z,99.90
2018-05-21T02:36:41.948Z,99.90
2018-05-21T02:39:09.465Z,99.90
2018-05-21T02:41:36.947Z,99.90
2018-05-21T02:44:04.471Z,99.90
2018-05-21T02:46:31.964Z,99.90
2018-05-21T02:48:59.456Z,99.90
2018-05-21T02:51:26.933Z,99.90
2018-05-21T02:53:55.189Z,99.90
2018-05-21T02:56:23.458Z,99.90
2018-05-21T02:58:50.975Z,99.90
2018-05-21T03:01:18.483Z,99.90
2018-05-21T03:03:45.970Z,99.90
2018-05-21T03:06:14.400Z,99.90
2018-05-21T03:08:41.889Z,99.90
2018-05-21T03:11:09.375Z,99.90
2018-05-21T03:13:36.882Z,99.90
2018-05-21T03:16:04.365Z,99.90
2018-05-21T03:18:31.899Z,99.90
2018-05-21T03:20:59.392Z,99.90
2018-05-21T03:23:27.654Z,99.90
2018-05-21T03:25:55.925Z,99.90
2018-05-21T03:28:23.402Z,99.90
2018-05-21T03:30:50.928Z,99.90
2018-05-21T03:33:18.429Z,99.90
2018-05-21T03:35:46.708Z,99.90
2018-05-21T03:38:14.945Z,99.90
2018-05-21T03:40:42.439Z,99.90
2018-05-21T03:43:10.719Z,99.90
2018-05-21T03:45:39.007Z,99.90
2018-05-21T03:48:06.496Z,99.90
2018-05-21T03:50:33.971Z,99.90
2018-05-21T03:53:01.485Z,99.90
2018-05-21T03:55:28.962Z,99.90
2018-05-21T03:57:56.447Z,99.90
2018-05-21T04:00:35.845Z,99.90
2018-05-21T04:06:05.471Z,99.90
2018-05-21T04:08:32.972Z,99.90
2018-05-21T04:11:00.456Z,99.90
2018-05-21T04:13:27.942Z,99.90
2018-05-21T04:15:56.210Z,99.90
2018-05-21T04:18:24.472Z,99.90
2018-05-21T04:20:51.990Z,99.90
2018-05-21T04:23:19.485Z,99.90
2018-05-21T04:25:46.989Z,99.90
2018-05-21T04:28:14.526Z,99.90
2018-05-21T04:30:41.996Z,99.90
2018-05-21T04:33:10.259Z,99.90
2018-05-21T04:35:38.522Z,99.90
2018-05-21T04:38:06.022Z,99.90
2018-05-21T04:40:33.508Z,99.90
2018-05-21T04:43:00.990Z,99.90
2018-05-21T04:45:28.478Z,99.90
2018-05-21T04:47:56.737Z,99.90
2018-05-21T04:50:24.217Z,99.90
2018-05-21T04:52:52.459Z,99.90
2018-05-21T04:55:20.044Z,99.90
2018-05-21T04:57:48.297Z,99.90
2018-05-21T05:00:15.806Z,99.90
2018-05-21T05:02:43.321Z,99.90
2018-05-21T05:05:10.816Z,99.90
2018-05-21T05:07:38.325Z,99.90
2018-05-21T05:10:05.846Z,99.90
2018-05-21T05:12:33.337Z,99.90
2018-05-21T05:15:00.833Z,99.90
2018-05-21T05:17:29.076Z,99.90
2018-05-21T05:19:56.572Z,99.90
2018-05-21T05:22:24.933Z,99.90
2018-05-21T05:24:52.427Z,99.90
2018-05-21T05:27:19.947Z,99.90
2018-05-21T05:29:47.423Z,99.90
2018-05-21T05:32:14.909Z,99.90
2018-05-21T05:34:42.400Z,99.90
2018-05-21T05:37:09.893Z,99.90
2018-05-21T05:39:37.369Z,99.90
2018-05-21T05:42:05.657Z,99.90
2018-05-21T05:44:33.104Z,99.90
2018-05-21T05:47:01.358Z,99.90
2018-05-21T05:49:28.839Z,99.90
2018-05-21T05:51:57.124Z,99.90
2018-05-21T05:54:24.626Z,99.90
2018-05-21T05:56:52.106Z,99.90
2018-05-21T05:59:20.398Z,99.90
2018-05-21T06:01:48.664Z,99.90
2018-05-21T06:04:16.142Z,99.90
2018-05-21T06:06:44.404Z,99.40
2018-05-21T06:09:11.881Z,99.40
2018-05-21T06:11:40.151Z,94.00
2018-05-21T06:14:08.463Z,90.40
2018-05-21T06:16:35.956Z,90.30
2018-05-21T06:19:03.441Z,86.20
2018-05-21T06:21:30.957Z,86.80
2018-05-21T06:23:58.502Z,79.30
2018-05-21T06:26:25.980Z,78.90
2018-05-21T06:28:53.501Z,80.40
2018-05-21T06:31:21.008Z,79.10
2018-05-21T06:33:48.510Z,76.30
2018-05-21T06:36:16.757Z,72.80
2018-05-21T06:38:44.241Z,72.80
2018-05-21T06:41:12.513Z,68.40
2018-05-21T06:43:39.997Z,68.20
2018-05-21T06:46:08.253Z,67.30
2018-05-21T06:48:36.509Z,67.00
2018-05-21T06:51:04.017Z,67.10
2018-05-21T06:53:31.527Z,64.10
2018-05-21T06:55:59.034Z,63.90
2018-05-21T06:58:26.529Z,61.10
2018-05-21T07:00:54.074Z,62.80
2018-05-21T07:03:21.570Z,63.10
2018-05-21T07:05:49.073Z,63.50
2018-05-21T07:08:16.564Z,65.10
2018-05-21T07:10:44.045Z,62.80
2018-05-21T07:13:11.550Z,58.80
2018-05-21T07:15:39.237Z,57.60
2018-05-21T07:18:06.854Z,56.50
2018-05-21T07:20:34.284Z,56.50
2018-05-21T07:23:01.777Z,55.60
2018-05-21T07:25:29.247Z,54.30
2018-05-21T07:27:56.743Z,54.60
2018-05-21T07:30:24.729Z,55.50
2018-05-21T07:32:52.310Z,53.80
2018-05-21T07:35:20.545Z,52.50
2018-05-21T07:37:48.066Z,52.40
2018-05-21T07:40:15.557Z,50.40
2018-05-21T07:42:43.082Z,50.80
2018-05-21T07:45:10.569Z,53.90
2018-05-21T07:47:38.089Z,55.50
2018-05-21T07:50:06.340Z,57.30
2018-05-21T07:52:33.858Z,57.20
2018-05-21T07:55:01.356Z,56.50
2018-05-21T07:57:28.840Z,56.00
2018-05-21T07:59:57.094Z,53.30
2018-05-21T08:02:24.736Z,53.30
2018-05-21T08:04:52.733Z,51.90
2018-05-21T08:07:20.208Z,53.70
2018-05-21T08:09:48.488Z,53.40
2018-05-21T08:12:16.734Z,56.90
2018-05-21T08:14:44.367Z,56.10
2018-05-21T08:17:12.765Z,57.50
2018-05-21T08:19:40.253Z,57.50
2018-05-21T08:22:07.791Z,57.80
2018-05-21T08:24:35.291Z,58.00
2018-05-21T08:27:03.632Z,59.10
2018-05-21T08:29:31.137Z,59.10
2018-05-21T08:31:59.391Z,57.10
2018-05-21T08:34:26.951Z,57.10
2018-05-21T08:36:54.467Z,58.00
2018-05-21T08:39:21.977Z,58.40
2018-05-21T08:41:49.496Z,58.40
2018-05-21T08:44:17.085Z,57.20
2018-05-21T08:46:44.701Z,58.40
2018-05-21T08:49:12.187Z,56.30
2018-05-21T08:51:39.694Z,56.10
2018-05-21T08:54:07.956Z,55.50
2018-05-21T08:56:35.470Z,55.50
2018-05-21T08:59:03.001Z,55.40
2018-05-21T09:01:30.480Z,53.50
2018-05-21T09:03:57.972Z,54.90
2018-05-21T09:06:25.501Z,55.20
2018-05-21T09:08:52.977Z,56.50
2018-05-21T09:11:20.495Z,55.20
2018-05-21T09:13:48.075Z,53.30
2018-05-21T09:16:15.571Z,53.40
2018-05-21T09:18:43.159Z,54.10
2018-05-21T09:21:10.662Z,52.90
2018-05-21T09:23:38.126Z,52.30
2018-05-21T09:26:05.733Z,52.60
2018-05-21T09:28:33.213Z,52.30
2018-05-21T09:31:00.744Z,52.30
2018-05-21T09:33:28.227Z,51.00
2018-05-21T09:35:56.882Z,51.50
2018-05-21T09:38:24.372Z,51.50
2018-05-21T09:40:51.881Z,49.30
2018-05-21T09:43:19.797Z,49.70
2018-05-21T09:45:48.097Z,50.00
2018-05-21T09:48:15.655Z,49.90
2018-05-21T09:50:43.420Z,49.30
2018-05-21T09:53:10.921Z,50.40
2018-05-21T09:55:38.390Z,50.50
2018-05-21T09:58:05.901Z,51.10
2018-05-21T10:00:33.388Z,50.60
2018-05-21T10:03:00.890Z,51.20
2018-05-21T10:05:29.117Z,51.30
2018-05-21T10:07:56.650Z,51.20
2018-05-21T10:10:24.143Z,50.60
2018-05-21T10:12:51.678Z,51.10
2018-05-21T10:15:19.158Z,49.90
2018-05-21T10:17:46.663Z,48.50
2018-05-21T10:20:14.895Z,49.10
2018-05-21T10:22:42.362Z,49.10
2018-05-21T10:25:09.907Z,48.50
2018-05-21T10:27:37.425Z,50.20
2018-05-21T10:30:04.914Z,49.40
2018-05-21T10:32:32.388Z,50.50
2018-05-21T10:34:59.884Z,50.20
2018-05-21T10:37:27.392Z,49.70
2018-05-21T10:39:54.869Z,49.20
2018-05-21T10:42:22.349Z,48.60
2018-05-21T10:44:49.837Z,50.40
2018-05-21T10:47:18.092Z,52.10
2018-05-21T10:49:45.609Z,52.10
2018-05-21T10:52:13.084Z,50.90
2018-05-21T10:54:40.557Z,51.40
2018-05-21T10:57:08.039Z,51.60
2018-05-21T10:59:35.514Z,51.20
2018-05-21T11:02:03.761Z,51.00
2018-05-21T11:04:31.300Z,51.00
2018-05-21T11:06:58.834Z,52.20
2018-05-21T11:09:26.313Z,51.80
2018-05-21T11:11:53.793Z,52.40
2018-05-21T11:14:21.265Z,53.10
2018-05-21T11:16:48.742Z,52.70
2018-05-21T11:19:17.402Z,54.00
2018-05-21T11:21:45.991Z,52.90
2018-05-21T11:24:13.515Z,52.90
2018-05-21T11:26:41.018Z,52.60
2018-05-21T11:29:09.275Z,55.10
2018-05-21T11:31:36.955Z,54.40
2018-05-21T11:34:04.554Z,52.80
2018-05-21T11:36:32.040Z,53.20
2018-05-21T11:38:59.514Z,51.50
2018-05-21T11:41:27.033Z,53.40
2018-05-21T11:43:54.513Z,53.90
2018-05-21T11:46:22.071Z,51.80
2018-05-21T11:48:49.694Z,52.70
2018-05-21T11:51:17.989Z,52.90
2018-05-21T11:53:45.515Z,52.80
2018-05-21T11:56:13.041Z,53.10
2018-05-21T11:58:40.531Z,53.40
2018-05-21T12:01:08.085Z,51.80
2018-05-21T12:03:36.341Z,52.00
2018-05-21T12:06:03.953Z,52.00
2018-05-21T12:08:32.230Z,53.60
2018-05-21T12:11:00.555Z,55.10
2018-05-21T12:13:28.064Z,55.00
2018-05-21T12:15:56.345Z,54.80
2018-05-21T12:18:24.583Z,53.40
2018-05-21T12:20:52.112Z,53.40
2018-05-21T12:23:19.594Z,54.80
2018-05-21T12:25:47.081Z,54.60
2018-05-21T12:28:15.330Z,55.90
2018-05-21T12:30:42.999Z,55.30
2018-05-21T12:33:10.490Z,55.20
2018-05-21T12:35:39.462Z,54.00
2018-05-21T12:38:06.975Z,54.00
2018-05-21T12:40:34.430Z,54.10
2018-05-21T12:43:01.935Z,54.40
2018-05-21T12:45:29.421Z,54.90
2018-05-21T12:47:57.662Z,54.70
2018-05-21T12:50:25.152Z,54.70
2018-05-21T12:52:53.440Z,54.10
2018-05-21T12:55:20.952Z,54.10
2018-05-21T12:57:48.507Z,54.30
2018-05-21T13:00:15.993Z,54.80
2018-05-21T13:02:43.486Z,54.90
2018-05-21T13:05:11.040Z,55.40
2018-05-21T13:07:38.504Z,54.30
2018-05-21T13:10:06.091Z,54.40
2018-05-21T13:12:33.570Z,55.20
2018-05-21T13:15:01.071Z,55.60
2018-05-21T13:17:29.308Z,57.30
2018-05-21T13:19:56.776Z,57.30
2018-05-21T13:22:24.292Z,56.90
2018-05-21T13:24:51.927Z,55.80
2018-05-21T13:27:20.195Z,55.80
2018-05-21T13:29:47.682Z,55.80
2018-05-21T13:32:15.283Z,55.60
2018-05-21T13:34:42.832Z,55.60
2018-05-21T13:37:10.322Z,55.00
2018-05-21T13:39:37.829Z,55.70
2018-05-21T13:42:05.343Z,56.30
2018-05-21T13:44:32.808Z,55.70
2018-05-21T13:47:00.273Z,55.70
2018-05-21T13:49:27.777Z,56.50
2018-05-21T13:51:55.250Z,55.90
2018-05-21T13:54:22.727Z,56.10
2018-05-21T13:56:50.193Z,56.00
2018-05-21T13:59:17.671Z,55.90
2018-05-21T14:01:45.162Z,56.90
2018-05-21T14:04:12.651Z,57.40
2018-05-21T14:06:40.147Z,57.80
2018-05-21T14:09:08.402Z,56.50
2018-05-21T14:11:36.005Z,56.40
2018-05-21T14:14:04.238Z,56.00
2018-05-21T14:16:31.715Z,55.90
2018-05-21T14:18:59.250Z,56.50
2018-05-21T14:21:26.722Z,55.30
2018-05-21T14:23:54.238Z,54.90
2018-05-21T14:26:22.453Z,56.40
2018-05-21T14:28:49.940Z,56.40
2018-05-21T14:31:18.210Z,56.30
2018-05-21T14:33:45.670Z,56.20
2018-05-21T14:36:13.192Z,56.40
2018-05-21T14:38:40.662Z,57.30
2018-05-21T14:41:08.141Z,57.30
2018-05-21T14:43:35.614Z,56.30
2018-05-21T14:46:03.864Z,56.70
2018-05-21T14:48:31.417Z,56.70
2018-05-21T14:50:58.881Z,57.40
2018-05-21T14:53:26.384Z,57.00
2018-05-21T14:55:54.634Z,55.70
2018-05-21T14:58:22.092Z,55.60
2018-05-21T15:00:49.670Z,54.60
2018-05-21T15:03:17.198Z,54.40
2018-05-21T15:05:46.179Z,54.50
2018-05-21T15:08:13.673Z,54.50
2018-05-21T15:10:41.255Z,54.40
2018-05-21T15:13:09.516Z,54.70
2018-05-21T15:15:37.755Z,55.30
2018-05-21T15:18:05.276Z,55.30
2018-05-21T15:20:32.933Z,55.10
2018-05-21T15:23:00.420Z,54.70
2018-05-21T15:25:27.887Z,54.10
2018-05-21T15:27:55.620Z,54.00
2018-05-21T15:30:23.143Z,54.70
2018-05-21T15:32:50.607Z,55.20
2018-05-21T15:35:18.999Z,55.00
2018-05-21T15:37:47.295Z,56.40
2018-05-21T15:40:14.927Z,56.30
2018-05-21T15:42:42.693Z,56.50
2018-05-21T15:45:10.189Z,56.30
2018-05-21T15:47:39.520Z,56.40
2018-05-21T15:50:06.988Z,56.30
2018-05-21T15:52:34.469Z,56.40
2018-05-21T15:55:02.038Z,55.30
2018-05-21T15:57:30.564Z,55.70
2018-05-21T15:59:58.142Z,55.70
2018-05-21T16:02:25.626Z,55.60
2018-05-21T16:04:53.142Z,56.10
2018-05-21T16:07:20.719Z,56.10
2018-05-21T16:09:48.237Z,56.20
2018-05-21T16:12:16.546Z,57.00
2018-05-21T16:14:44.073Z,56.90
2018-05-21T16:17:11.984Z,57.30
2018-05-21T16:19:41.076Z,57.20
2018-05-21T16:22:08.535Z,57.40
2018-05-21T16:24:35.997Z,57.40
2018-05-21T16:27:03.489Z,57.60
2018-05-21T16:29:31.002Z,57.50
2018-05-21T16:31:58.481Z,57.90
2018-05-21T16:34:25.938Z,58.20
2018-05-21T16:36:53.431Z,58.10
2018-05-21T16:39:20.892Z,58.90
2018-05-21T16:41:49.152Z,58.40
2018-05-21T16:44:16.699Z,58.30
2018-05-21T16:46:44.183Z,58.30
2018-05-21T16:49:12.464Z,58.10
2018-05-21T16:51:39.953Z,58.50
2018-05-21T16:54:07.420Z,59.50
2018-05-21T16:56:34.902Z,59.50
2018-05-21T16:59:02.376Z,59.50
2018-05-21T17:01:29.848Z,59.90
2018-05-21T17:03:57.348Z,60.00
2018-05-21T17:06:24.817Z,60.40
2018-05-21T17:08:52.296Z,60.70
2018-05-21T17:11:19.837Z,61.30
2018-05-21T17:13:47.354Z,61.40
2018-05-21T17:16:14.859Z,61.90
2018-05-21T17:18:42.378Z,62.10
2018-05-21T17:21:10.659Z,62.40
2018-05-21T17:23:38.891Z,62.60
2018-05-21T17:26:06.376Z,62.50
2018-05-21T17:28:33.832Z,62.50
2018-05-21T17:31:01.351Z,62.80
2018-05-21T17:33:28.816Z,63.00
2018-05-21T17:35:56.304Z,62.80
2018-05-21T17:38:23.767Z,62.80
2018-05-21T17:40:51.633Z,63.20
2018-05-21T17:43:19.906Z,63.50
2018-05-21T17:45:47.373Z,63.50
2018-05-21T17:48:14.846Z,64.10
2018-05-21T17:50:43.479Z,64.20
2018-05-21T17:53:10.989Z,64.70
2018-05-21T17:55:38.569Z,65.00
2018-05-21T17:58:06.074Z,65.70
2018-05-21T18:00:33.717Z,65.90
2018-05-21T18:03:01.214Z,66.70
2018-05-21T18:05:29.099Z,68.30
2018-05-21T18:07:56.662Z,69.50
2018-05-21T18:10:24.126Z,68.30
2018-05-21T18:12:52.369Z,69.50
2018-05-21T18:15:19.841Z,69.50
2018-05-21T18:17:48.221Z,69.90
2018-05-21T18:20:15.700Z,69.80
2018-05-21T18:22:43.941Z,90.50
2018-05-21T18:25:11.423Z,90.40
2018-05-21T18:27:39.735Z,99.90
2018-05-21T18:30:07.202Z,99.90
2018-05-21T18:32:34.697Z,99.90
2018-05-21T18:35:02.222Z,99.90
2018-05-21T18:37:29.695Z,99.90
2018-05-21T18:39:58.285Z,99.90
2018-05-21T18:42:25.889Z,99.90
2018-05-21T18:44:54.178Z,99.90
2018-05-21T18:47:22.433Z,99.90
2018-05-21T18:49:49.924Z,99.90
2018-05-21T18:52:18.259Z,99.90
2018-05-21T18:54:45.751Z,99.90
2018-05-21T18:57:14.001Z,99.90
2018-05-21T18:59:41.552Z,99.90
2018-05-21T19:02:09.076Z,99.90
2018-05-21T19:04:36.595Z,99.90
2018-05-21T19:07:04.221Z,99.90
2018-05-21T19:09:31.725Z,99.90
2018-05-21T19:11:59.988Z,99.90
2018-05-21T19:14:27.583Z,99.90
2018-05-21T19:16:55.106Z,99.90
2018-05-21T19:19:22.623Z,99.90
2018-05-21T19:21:50.093Z,99.90
2018-05-21T19:24:17.796Z,99.90
2018-05-21T19:26:45.398Z,99.90
2018-05-21T19:29:12.894Z,99.90
2018-05-21T19:31:40.373Z,99.90
2018-05-21T19:34:08.640Z,99.90
2018-05-21T19:36:36.217Z,99.90
2018-05-21T19:39:05.319Z,99.90
2018-05-21T19:41:33.609Z,99.90
2018-05-21T19:44:01.305Z,99.90
2018-05-21T19:46:29.117Z,99.90
2018-05-21T19:48:56.650Z,99.90
2018-05-21T19:51:24.945Z,99.90
2018-05-21T19:53:52.461Z,99.90
2018-05-21T19:56:20.030Z,99.90
2018-05-21T19:58:47.521Z,99.90
2018-05-21T20:01:14.983Z,99.90
2018-05-21T20:03:42.480Z,99.90
2018-05-21T20:06:10.157Z,99.90
2018-05-21T20:08:38.511Z,99.90
2018-05-21T20:11:06.778Z,99.90
2018-05-21T20:13:34.296Z,99.90
2018-05-21T20:16:01.823Z,99.90
2018-05-21T20:18:35.119Z,99.90
2018-05-21T20:21:02.714Z,99.90
2018-05-21T20:23:30.318Z,99.90
2018-05-21T20:25:58.574Z,99.90
2018-05-21T20:28:26.042Z,99.90
2018-05-21T20:30:53.530Z,99.90
2018-05-21T20:33:21.196Z,99.90
2018-05-21T20:35:48.664Z,99.90
2018-05-21T20:38:16.146Z,99.90
2018-05-21T20:40:43.658Z,99.90
2018-05-21T20:43:12.373Z,99.90
2018-05-21T20:45:40.006Z,99.90
2018-05-21T20:48:07.682Z,99.90
2018-05-21T20:50:35.567Z,99.90
2018-05-21T20:53:03.054Z,99.90
2018-05-21T20:55:30.602Z,99.90
2018-05-21T20:57:58.072Z,99.90
2018-05-21T21:00:25.578Z,99.90
2018-05-21T21:02:53.806Z,99.90
2018-05-21T21:05:21.301Z,99.90
2018-05-21T21:07:48.848Z,99.90
2018-05-21T21:10:16.329Z,99.90
2018-05-21T21:12:44.586Z,99.90
2018-05-21T21:15:12.199Z,99.90
2018-05-21T21:17:40.793Z,99.90
2018-05-21T21:20:08.389Z,99.90
2018-05-21T21:22:35.881Z,99.90
2018-05-21T21:25:04.232Z,99.90
2018-05-21T21:27:31.732Z,99.90
2018-05-21T21:29:59.338Z,99.90
2018-05-21T21:32:26.922Z,99.90
2018-05-21T21:34:55.122Z,99.90
2018-05-21T21:37:22.664Z,99.90
2018-05-21T21:39:51.695Z,99.90
2018-05-21T21:42:19.355Z,99.90
2018-05-21T21:44:46.948Z,99.90
2018-05-21T21:47:14.473Z,99.90
2018-05-21T21:49:42.319Z,99.90
2018-05-21T21:52:10.606Z,99.90
2018-05-21T21:54:48.790Z,99.90
2018-05-21T21:57:16.268Z,99.90
2018-05-21T21:59:44.561Z,99.90
2018-05-21T22:02:12.037Z,99.90
2018-05-21T22:04:39.565Z,99.90
2018-05-21T22:07:07.837Z,99.90
2018-05-21T22:09:35.312Z,99.90
2018-05-21T22:12:03.556Z,99.90
2018-05-21T22:14:31.085Z,99.90
2018-05-21T22:16:58.593Z,99.90
2018-05-21T22:19:26.847Z,99.90
2018-05-21T22:21:54.313Z,99.90
2018-05-21T22:24:21.879Z,99.90
2018-05-21T22:26:50.194Z,99.90
2018-05-21T22:29:17.667Z,99.90
2018-05-21T22:31:45.156Z,99.90
2018-05-21T22:34:12.643Z,99.90
2018-05-21T22:36:40.941Z,99.90
2018-05-21T22:39:09.397Z,99.90
2018-05-21T22:41:36.890Z,99.90
2018-05-21T22:44:04.369Z,99.90
2018-05-21T22:46:31.844Z,99.90
2018-05-21T22:48:59.337Z,99.90
2018-05-21T22:51:26.831Z,99.90
2018-05-21T22:53:54.393Z,99.90
2018-05-21T22:56:21.891Z,99.90
2018-05-21T22:58:49.420Z,99.90
2018-05-21T23:01:16.967Z,99.90
2018-05-21T23:03:44.457Z,99.90
2018-05-21T23:06:11.944Z,99.90
2018-05-21T23:08:39.443Z,99.90
2018-05-21T23:11:06.910Z,99.90
2018-05-21T23:13:34.409Z,99.90
2018-05-21T23:16:01.923Z,99.90
2018-05-21T23:18:29.427Z,99.90
2018-05-21T23:20:56.944Z,99.90
2018-05-21T23:23:24.425Z,99.90
2018-05-21T23:25:51.901Z,99.90
2018-05-21T23:28:19.375Z,99.90
2018-05-21T23:30:46.857Z,99.90
2018-05-21T23:33:15.110Z,99.90
2018-05-21T23:35:42.724Z,99.90
2018-05-21T23:38:10.472Z,99.90
2018-05-21T23:40:37.970Z,99.90
2018-05-21T23:43:05.500Z,99.90
2018-05-21T23:45:32.968Z,99.90
2018-05-21T23:48:00.485Z,99.90
2018-05-21T23:50:28.756Z,99.90
2018-05-21T23:52:56.220Z,99.90
2018-05-21T23:55:24.465Z,99.90
2018-05-21T23:57:51.960Z,99.90
